Albert, OK

12:35 AM CDT on July 13, 2014 (GMT -0500)
Clinton Municipal (KCLK) Elev 1614 ft | 35.54 °N, 98.93 °W | Change Station

Current weather conditions updated 20 minutes ago

Clear
Clear
75 °F
Feels Like 75 °F
N
8
Wind Variable Wind from SSE

Today is forecast to be Warmer than yesterday.

Today
High -- | Low -- °F
--% Chance of Precip.
Yesterday
High -- | Low -- °F
Precip. -- in
6:29 AM 8:49 PM
Full, 99% visible
Pressure 30.07 in
Visibility 10.0 miles
Clouds Clear
Dew Point 41 °F
Humidity 29%
Rainfall 0.00 in
Snow Depth Not available.
UV 0 out of 12
Pollen 5.00 out of 12
Air Quality Not available.
Flu Activity Local Activity
METAR KCLK 130515Z AUTO 16007KT 10SM CLR 24/05 A3007 RMK AO2

More Conditions Fewer Conditions

Pressure 30.07 in
Visibility 10.0 miles
Clouds Clear
Dew Point 41 °F
Humidity 29%
Rainfall 0.00 in
Snow Depth Not available.
UV 0 out of 12
Pollen 5.00 out of 12
Air Quality Not available.
Flu Activity Local Activity
METAR KCLK 130515Z AUTO 16007KT 10SM CLR 24/05 A3007 RMK AO2

More Conditions Fewer Conditions

10-Day Weather Forecast

Almanac

Astronomy

Jul. 13, 2014 Rise Set
Actual Time 6:29 AM CDT 8:49 PM CDT
Civil Twilight 6:00 AM CDT 9:18 PM CDT
Nautical Twilight 5:24 AM CDT 9:54 PM CDT
Astronomical Twilight 4:44 AM CDT 10:33 PM CDT
Moon 9:45 PM CDT 7:56 AM CDT
Length of Visible Light 15h 18m
Length of Day
14h 20m
Tomorrow will be 1m 3s shorter.
Full, 99% of the Moon is Illuminated
Today
Full
Jul 18
Last Quarter
Jul 26
New
Aug 3
First Quarter
Aug 10
Full

Today's Extremes

State Highs State Lows

Community

WunderPhotos

Upload Photos

1,733,113 photos uploaded!

Nearby

Snow Depth

Station Depth Elevation
No new snow has been reported.

Earthquake Activity

City Distance Mag. Time & Date
Helena, Oklahoma 101 miles 3.0 2:44 AM CDT
2014-07-07
Perkins, Oklahoma 92 miles 2.6 10:56 PM CDT
2014-07-06
Cherokee, Oklahoma 112 miles 2.5 10:52 PM CDT
2014-07-06
Stillwater, Oklahoma 98 miles 2.5 7:38 PM CDT
2014-07-06
Minimum magnitude displayed is 2.5.

Coastal Water Temperatures

Place Temperature
No Stations Reporting

Nearby Weather Stations

Station Location Temp. Heat Index Dew Point Humidity Wind Precip. Elev Updated Type
Peck's country, Anadarko, OK 77.2 °F 79 °F 59 °F 53% SE  at  3.0 mph 0.00 in / hr 1255 ft 12:30 AM CDT Normal
Carnegie, Carnegie, OK 82.2 °F 81 °F 48 °F 30% South  at  6.3 mph 0.00 in / hr 1358 ft 12:35 AM CDT Rapid Fire

Show More Stations Show Fewer Stations